Time;durP1;ratioP1;P1;durP2;ratioP2;P2;SDS_P1;SDS_P2;PMS_P1;PMS_P2;Temp;Humidity;BMP_temperature;BMP_pressure;BME280_temperature;BME280_humidity;BME280_pressure;Samples;Min_cycle;Max_cycle;Signal;HPM_P1;HPM_P2
2023/12/04 00:01:17;;;;;;;1.95;1.08;;;;;;;4.14;100.00;97998.13;5091229;28;20024;-73
2023/12/04 00:03:42;;;;;;;6.38;1.50;;;;;;;4.03;100.00;98002.84;5068266;28;20015;-72
2023/12/04 00:06:10;;;;;;;0.77;0.35;;;;;;;4.05;100.00;98008.13;5092647;28;20521;-72
2023/12/04 00:08:37;;;;;;;0.15;0.15;;;;;;;4.09;100.00;98010.63;5092280;28;20077;-72
2023/12/04 00:11:03;;;;;;;1.88;0.80;;;;;;;3.99;100.00;98008.28;5092392;28;20073;-72
2023/12/04 00:13:28;;;;;;;0.70;0.70;;;;;;;3.93;100.00;98019.94;5096027;28;20027;-73
2023/12/04 00:15:54;;;;;;;0.70;0.70;;;;;;;3.90;100.00;98019.16;5114040;28;20024;-72
2023/12/04 00:18:20;;;;;;;2.85;0.60;;;;;;;3.95;100.00;98033.97;5095247;28;20406;-72
2023/12/04 00:20:45;;;;;;;0.73;0.73;;;;;;;3.92;100.00;98030.53;5113551;28;20068;-72
2023/12/04 00:23:11;;;;;;;1.45;1.38;;;;;;;3.90;100.00;98029.72;5108896;28;20027;-72
2023/12/04 00:25:36;;;;;;;1.52;1.17;;;;;;;4.01;100.00;98041.75;5075076;28;20020;-73
2023/12/04 00:28:02;;;;;;;0.82;0.82;;;;;;;4.00;100.00;98041.81;5092220;28;20028;-72
2023/12/04 00:30:28;;;;;;;0.50;0.50;;;;;;;4.02;100.00;98034.69;5093401;28;20502;-72
2023/12/04 00:32:53;;;;;;;0.75;0.40;;;;;;;3.99;100.00;98040.94;5093430;28;20095;-71
2023/12/04 00:35:19;;;;;;;0.95;0.80;;;;;;;3.98;100.00;98049.75;5075091;28;20028;-72
2023/12/04 00:37:44;;;;;;;0.55;0.55;;;;;;;4.01;100.00;98049.69;5075051;28;20177;-71
2023/12/04 00:40:10;;;;;;;0.30;0.30;;;;;;;4.06;100.00;98052.22;5074955;28;20035;-72
2023/12/04 00:42:36;;;;;;;0.30;0.30;;;;;;;4.11;100.00;98060.88;5074943;28;20085;-72
2023/12/04 00:45:02;;;;;;;0.68;0.68;;;;;;;4.11;100.00;98058.22;5075168;28;20104;-73
2023/12/04 00:47:28;;;;;;;0.77;0.70;;;;;;;4.18;100.00;98065.94;5056027;28;20101;-71
2023/12/04 00:49:54;;;;;;;1.25;1.15;;;;;;;4.19;100.00;98070.34;5074641;28;20123;-73
2023/12/04 00:52:19;;;;;;;1.15;0.77;;;;;;;4.31;100.00;98069.09;5074781;28;20028;-72
2023/12/04 00:54:45;;;;;;;2.13;1.13;;;;;;;4.30;100.00;98078.00;5091720;28;20050;-73
2023/12/04 00:57:10;;;;;;;0.75;0.65;;;;;;;4.33;100.00;98075.25;5090034;28;20134;-72
2023/12/04 00:59:36;;;;;;;0.73;0.73;;;;;;;4.26;100.00;98068.38;5113065;28;20039;-71
2023/12/04 01:02:02;;;;;;;0.45;0.45;;;;;;;4.26;100.00;98069.25;5113371;28;20098;-72
2023/12/04 01:04:27;;;;;;;3.47;1.40;;;;;;;4.27;100.00;98078.06;5077814;28;20035;-72
2023/12/04 01:06:53;;;;;;;0.65;0.65;;;;;;;4.26;100.00;98076.31;5094851;28;20122;-73
2023/12/04 01:09:24;;;;;;;1.55;1.45;;;;;;;4.19;100.00;98088.00;5094835;28;20031;-73
2023/12/04 01:11:53;;;;;;;0.63;0.63;;;;;;;4.15;100.00;98086.38;5109488;28;20085;-73
2023/12/04 01:14:18;;;;;;;2.28;1.27;;;;;;;4.13;100.00;98081.09;5074616;28;20020;-72
2023/12/04 01:16:47;;;;;;;1.08;1.08;;;;;;;4.14;100.00;98090.78;5111754;28;20023;-73
2023/12/04 01:19:13;;;;;;;0.98;0.65;;;;;;;4.10;100.00;98090.91;5113324;28;20081;-73
2023/12/04 01:21:38;;;;;;;1.63;1.00;;;;;;;4.13;100.00;98086.38;5093625;28;20486;-72
2023/12/04 01:24:04;;;;;;;4.32;1.30;;;;;;;4.14;100.00;98093.44;5094005;28;20027;-72
2023/12/04 01:26:29;;;;;;;0.52;0.52;;;;;;;4.16;100.00;98080.13;5112558;28;20024;-72
2023/12/04 01:28:55;;;;;;;0.57;0.57;;;;;;;4.19;100.00;98085.34;5112488;28;20516;-72
2023/12/04 01:31:21;;;;;;;0.70;0.70;;;;;;;4.13;100.00;98080.22;5091610;28;20088;-71
2023/12/04 01:33:47;;;;;;;2.55;0.98;;;;;;;4.16;100.00;98074.84;5112366;28;20034;-73
2023/12/04 01:36:13;;;;;;;0.50;0.45;;;;;;;4.15;100.00;98070.47;5094199;28;20019;-73
2023/12/04 01:38:38;;;;;;;0.98;0.93;;;;;;;4.08;100.00;98071.56;5077028;28;20031;-72
2023/12/04 01:41:04;;;;;;;0.30;0.30;;;;;;;4.03;100.00;98068.19;5087980;28;20025;-73
2023/12/04 01:43:30;;;;;;;0.85;0.80;;;;;;;4.02;100.00;98071.72;5074183;28;20140;-72
2023/12/04 01:45:56;;;;;;;1.75;1.65;;;;;;;4.06;100.00;98073.38;5093508;28;20051;-72
2023/12/04 01:48:22;;;;;;;0.52;0.52;;;;;;;4.13;100.00;98081.09;5112339;28;20020;-72
2023/12/04 01:50:47;;;;;;;0.65;0.65;;;;;;;4.18;100.00;98073.88;5085321;28;20055;-73
2023/12/04 01:53:13;;;;;;;0.38;0.38;;;;;;;4.15;100.00;98073.13;5081110;28;20055;-72
2023/12/04 01:55:39;;;;;;;1.10;0.63;;;;;;;4.03;100.00;98063.72;5079916;28;20024;-72
2023/12/04 01:58:06;;;;;;;0.75;0.73;;;;;;;4.06;100.00;98071.59;5073718;28;20035;-73
2023/12/04 02:00:31;;;;;;;0.30;0.30;;;;;;;4.15;100.00;98078.44;5073691;28;20032;-72
2023/12/04 02:02:58;;;;;;;1.00;1.00;;;;;;;4.15;100.00;98087.22;5056461;28;20051;-72
2023/12/04 02:05:24;;;;;;;0.40;0.40;;;;;;;4.14;100.00;98087.25;5071453;28;20039;-72
2023/12/04 02:08:08;;;;;;;1.08;0.63;;;;;;;4.12;100.00;98086.44;5091756;28;20433;-73
2023/12/04 02:10:38;;;;;;;0.95;0.95;;;;;;;4.18;100.00;98086.28;5073428;28;20032;-72
2023/12/04 02:13:04;;;;;;;0.75;0.75;;;;;;;4.12;100.00;98087.28;5056791;28;20057;-72
2023/12/04 02:15:30;;;;;;;0.40;0.40;;;;;;;4.13;100.00;98091.69;5073149;28;20055;-73
2023/12/04 02:17:55;;;;;;;1.65;0.50;;;;;;;4.02;100.00;98082.31;5091108;28;20031;-73
2023/12/04 02:20:31;;;;;;;0.82;0.82;;;;;;;4.00;100.00;98076.19;5078709;28;20031;-73
2023/12/04 02:22:56;;;;;;;1.17;0.75;;;;;;;4.00;100.00;98087.63;5092301;28;20115;-72
2023/12/04 02:25:37;;;;;;;0.52;0.45;;;;;;;3.88;100.00;98077.38;5111494;28;20118;-72
2023/12/04 02:28:06;;;;;;;0.45;0.40;;;;;;;3.90;100.00;98093.22;5093522;28;20023;-72
2023/12/04 02:30:37;;;;;;;0.50;0.50;;;;;;;3.84;100.00;98088.97;5092981;28;20456;-72
2023/12/04 02:33:08;;;;;;;0.20;0.20;;;;;;;3.86;100.00;98087.16;5091522;28;20046;-73
2023/12/04 02:35:35;;;;;;;3.35;0.73;;;;;;;3.84;100.00;98094.28;5072895;28;20059;-73
2023/12/04 02:38:01;;;;;;;0.43;0.43;;;;;;;3.76;100.00;98097.09;5079604;28;20435;-73
2023/12/04 02:40:27;;;;;;;0.65;0.65;;;;;;;3.72;100.00;98100.72;5076125;28;20096;-73
2023/12/04 02:42:52;;;;;;;0.93;0.90;;;;;;;3.76;100.00;98106.81;5093230;28;20023;-72
2023/12/04 02:45:18;;;;;;;0.60;0.60;;;;;;;3.74;100.00;98109.50;5110982;28;20027;-73
2023/12/04 02:47:43;;;;;;;0.60;0.60;;;;;;;3.65;100.00;98106.22;5111256;28;20049;-73
2023/12/04 02:50:09;;;;;;;0.88;0.65;;;;;;;3.59;100.00;98115.19;5111266;28;20505;-73
2023/12/04 02:52:35;;;;;;;0.20;0.20;;;;;;;3.54;100.00;98117.06;5076122;28;20032;-73
2023/12/04 02:55:00;;;;;;;0.57;0.57;;;;;;;3.56;100.00;98110.00;5089068;28;20023;-73
2023/12/04 02:57:26;;;;;;;0.68;0.68;;;;;;;3.60;100.00;98124.84;5080933;28;20031;-73
2023/12/04 02:59:51;;;;;;;7.72;4.43;;;;;;;3.49;100.00;98104.88;5071587;28;20423;-73
2023/12/04 03:02:17;;;;;;;9.15;4.80;;;;;;;3.56;100.00;98104.69;5071222;28;20020;-73
2023/12/04 03:04:43;;;;;;;14.70;4.80;;;;;;;3.58;100.00;98113.44;5080801;28;20028;-73
2023/12/04 03:07:08;;;;;;;9.93;4.85;;;;;;;3.61;100.00;98123.94;5056076;28;20491;-73
2023/12/04 03:09:34;;;;;;;10.57;5.38;;;;;;;3.56;100.00;98120.56;5055856;28;20024;-73
2023/12/04 03:11:59;;;;;;;7.55;4.63;;;;;;;3.63;100.00;98132.72;5090646;28;20027;-72
2023/12/04 03:14:25;;;;;;;10.95;5.03;;;;;;;3.61;100.00;98123.94;5090416;28;20020;-73
2023/12/04 03:16:50;;;;;;;8.90;4.90;;;;;;;3.56;100.00;98131.13;5072484;28;20479;-73
2023/12/04 03:19:16;;;;;;;8.18;4.72;;;;;;;3.57;100.00;98127.56;5055723;28;20103;-72
2023/12/04 03:21:42;;;;;;;8.48;5.10;;;;;;;3.64;100.00;98123.00;5090446;28;20024;-72
2023/12/04 03:24:07;;;;;;;8.70;5.30;;;;;;;3.64;100.00;98129.16;5077900;28;20081;-71
2023/12/04 03:26:33;;;;;;;10.02;5.00;;;;;;;3.70;100.00;98136.94;5092799;28;20020;-71
2023/12/04 03:28:58;;;;;;;12.75;6.53;;;;;;;3.67;100.00;98144.94;5092239;28;20115;-72
2023/12/04 03:31:24;;;;;;;10.98;6.47;;;;;;;3.54;100.00;98143.50;5085839;28;20024;-72
2023/12/04 03:33:50;;;;;;;13.30;6.47;;;;;;;3.55;100.00;98147.91;5072260;28;20483;-73
2023/12/04 03:36:16;;;;;;;11.60;5.45;;;;;;;3.40;100.00;98135.06;5090524;28;20016;-73
2023/12/04 03:38:41;;;;;;;10.90;5.80;;;;;;;3.48;100.00;98142.78;5089239;28;20036;-73
2023/12/04 03:41:16;;;;;;;12.65;6.68;;;;;;;3.46;100.00;98134.03;5072213;28;20028;-73
2023/12/04 03:43:42;;;;;;;8.82;5.38;;;;;;;3.48;100.00;98132.22;5090272;28;20059;-73
2023/12/04 03:46:08;;;;;;;10.23;5.10;;;;;;;3.51;100.00;98132.13;5092037;28;20439;-73
2023/12/04 03:48:34;;;;;;;11.38;5.53;;;;;;;3.55;100.00;98129.41;5076120;28;20074;-72
2023/12/04 03:50:59;;;;;;;12.65;6.22;;;;;;;3.49;100.00;98133.97;5072372;28;20076;-72
2023/12/04 03:53:26;;;;;;;11.30;5.70;;;;;;;3.40;100.00;98137.69;5072839;28;20043;-73
2023/12/04 03:55:52;;;;;;;11.43;6.35;;;;;;;3.32;100.00;98141.44;5072734;28;20033;-74
2023/12/04 03:58:18;;;;;;;12.30;6.70;;;;;;;3.26;100.00;98132.72;5064588;28;20518;-73
2023/12/04 04:00:43;;;;;;;9.68;5.25;;;;;;;3.36;100.00;98138.66;5073568;28;20029;-73
2023/12/04 04:03:12;;;;;;;8.27;5.10;;;;;;;3.34;100.00;98123.75;5072242;28;20031;-73
2023/12/04 04:05:37;;;;;;;9.02;5.07;;;;;;;3.34;100.00;98129.91;5089352;28;20043;-73
2023/12/04 04:08:05;;;;;;;8.65;5.05;;;;;;;3.33;100.00;98130.81;5089128;28;20029;-74
2023/12/04 04:10:31;;;;;;;8.77;5.43;;;;;;;3.30;100.00;98133.53;5073493;28;20476;-73
2023/12/04 04:12:56;;;;;;;11.32;5.43;;;;;;;3.25;100.00;98125.72;5072259;28;20111;-73
2023/12/04 04:15:22;;;;;;;10.15;5.38;;;;;;;3.27;100.00;98136.25;5072193;28;20175;-73
2023/12/04 04:17:48;;;;;;;10.98;5.03;;;;;;;3.24;100.00;98137.19;5072206;28;20483;-74
2023/12/04 04:20:14;;;;;;;8.65;4.63;;;;;;;3.20;100.00;98135.53;5088897;28;20407;-74
2023/12/04 04:22:40;;;;;;;10.93;4.80;;;;;;;3.26;100.00;98145.09;5072122;28;20035;-73
2023/12/04 04:25:09;;;;;;;8.32;5.35;;;;;;;3.20;100.00;98147.88;5073739;28;20191;-73
2023/12/04 04:27:35;;;;;;;10.75;6.35;;;;;;;3.18;100.00;98161.13;5087845;28;20063;-72
2023/12/04 04:30:01;;;;;;;12.75;6.65;;;;;;;3.13;100.00;98156.84;5071913;28;20142;-73
2023/12/04 04:32:27;;;;;;;12.65;6.38;;;;;;;3.17;100.00;98163.78;5071787;28;20539;-72
2023/12/04 04:34:53;;;;;;;15.55;7.07;;;;;;;3.10;100.00;98157.81;5072024;28;20048;-74
2023/12/04 04:37:19;;;;;;;12.73;6.15;;;;;;;3.17;100.00;98164.66;5072040;28;20476;-74
2023/12/04 04:39:45;;;;;;;10.98;5.88;;;;;;;3.22;100.00;98161.94;5054946;28;20025;-73
2023/12/04 04:42:11;;;;;;;13.15;6.05;;;;;;;3.26;100.00;98168.91;5071732;28;20090;-73
2023/12/04 04:44:37;;;;;;;11.05;6.25;;;;;;;3.25;100.00;98164.50;5071620;28;20032;-72
2023/12/04 04:47:02;;;;;;;18.08;7.63;;;;;;;3.23;100.00;98168.97;5071446;28;20024;-72
2023/12/04 04:49:28;;;;;;;16.23;7.20;;;;;;;3.21;100.00;98173.41;5073766;28;20406;-72
2023/12/04 04:51:56;;;;;;;14.07;6.88;;;;;;;3.28;100.00;98177.66;5075129;28;20020;-72
2023/12/04 04:54:22;;;;;;;12.82;6.40;;;;;;;3.30;100.00;98175.84;5092734;28;20028;-74
2023/12/04 04:56:47;;;;;;;10.68;5.82;;;;;;;3.28;100.00;98177.66;5074054;28;20024;-73
2023/12/04 04:59:13;;;;;;;9.35;5.43;;;;;;;3.31;100.00;98168.78;5072576;28;20016;-72
2023/12/04 05:01:39;;;;;;;8.80;5.43;;;;;;;3.28;100.00;98169.72;5058986;28;20028;-74
2023/12/04 05:04:04;;;;;;;12.65;5.95;;;;;;;3.24;100.00;98174.19;5095209;28;20106;-71
2023/12/04 05:06:30;;;;;;;8.95;5.45;;;;;;;3.22;100.00;98172.50;5094754;28;20022;-70
2023/12/04 05:08:56;;;;;;;9.95;5.57;;;;;;;3.23;100.00;98179.53;5077697;28;20085;-71
2023/12/04 05:11:22;;;;;;;14.05;7.28;;;;;;;3.24;100.00;98187.41;5112653;28;20471;-71
2023/12/04 05:13:47;;;;;;;21.13;8.43;;;;;;;3.16;100.00;98183.22;5091336;28;20039;-72
2023/12/04 05:16:13;;;;;;;14.77;7.40;;;;;;;3.09;100.00;98171.91;5061521;28;20035;-72
2023/12/04 05:18:39;;;;;;;17.45;7.70;;;;;;;2.92;100.00;98166.16;5072503;28;20031;-73
2023/12/04 05:21:12;;;;;;;14.18;8.00;;;;;;;2.83;100.00;98191.88;5085441;28;20028;-72
2023/12/04 05:23:38;;;;;;;22.27;10.18;;;;;;;2.87;100.00;98190.91;5072285;28;20059;-72
2023/12/04 05:26:05;;;;;;;19.63;10.18;;;;;;;2.94;100.00;98203.94;5061474;28;20085;-72
2023/12/04 05:28:30;;;;;;;19.92;10.07;;;;;;;2.82;100.00;98204.22;5090455;28;20031;-73
2023/12/04 05:30:56;;;;;;;29.05;13.65;;;;;;;2.88;100.00;98208.50;5109383;28;20030;-72
2023/12/04 05:33:21;;;;;;;21.13;9.85;;;;;;;2.74;100.00;98212.28;5086369;28;20040;-73
2023/12/04 05:35:53;;;;;;;26.55;11.93;;;;;;;2.66;100.00;98203.66;5088035;28;20028;-73
2023/12/04 05:38:19;;;;;;;18.83;10.00;;;;;;;2.64;100.00;98210.75;5083103;28;20410;-72
2023/12/04 05:40:44;;;;;;;25.85;12.95;;;;;;;2.63;100.00;98216.91;5075511;28;20035;-73
2023/12/04 05:43:10;;;;;;;21.13;8.77;;;;;;;2.61;100.00;98223.13;5091556;28;20024;-73
2023/12/04 05:45:36;;;;;;;25.20;10.70;;;;;;;2.47;100.00;98223.38;5073560;28;20118;-73
2023/12/04 05:48:01;;;;;;;31.17;11.73;;;;;;;2.51;100.00;98226.84;5056156;28;20019;-73
2023/12/04 05:50:27;;;;;;;20.25;8.30;;;;;;;2.43;100.00;98219.06;5073427;28;20051;-72
2023/12/04 05:52:52;;;;;;;15.90;7.55;;;;;;;2.40;100.00;98221.75;5086215;28;20023;-72
2023/12/04 05:55:18;;;;;;;13.05;7.50;;;;;;;2.41;100.00;98236.72;5093495;28;20039;-73
2023/12/04 05:57:44;;;;;;;15.82;7.25;;;;;;;2.41;100.00;98249.91;5093144;28;20501;-72
2023/12/04 06:00:12;;;;;;;16.88;8.63;;;;;;;2.36;100.00;98246.50;5073878;28;20031;-74
2023/12/04 06:02:47;;;;;;;20.02;9.23;;;;;;;2.29;100.00;98244.84;5056587;28;20039;-72
2023/12/04 06:05:12;;;;;;;17.88;8.48;;;;;;;2.39;100.00;98243.78;5081611;28;20020;-74
2023/12/04 06:07:38;;;;;;;16.90;8.75;;;;;;;2.43;100.00;98253.38;5089911;28;20035;-74
2023/12/04 06:10:04;;;;;;;17.42;8.52;;;;;;;2.41;100.00;98243.75;5088964;28;20130;-73
2023/12/04 06:12:30;;;;;;;23.05;9.23;;;;;;;2.48;100.00;98250.66;5056323;28;20024;-73
2023/12/04 06:14:56;;;;;;;14.25;7.53;;;;;;;2.39;100.00;98246.44;5085932;28;20028;-74
2023/12/04 06:17:21;;;;;;;15.40;7.90;;;;;;;2.43;100.00;98244.63;5093139;28;20506;-72
2023/12/04 06:19:47;;;;;;;15.90;7.60;;;;;;;2.64;100.00;98252.13;5111102;28;20019;-74
2023/12/04 06:22:13;;;;;;;19.05;7.97;;;;;;;2.82;100.00;98261.44;5108775;28;20044;-72
2023/12/04 06:24:39;;;;;;;16.05;8.07;;;;;;;2.87;100.00;98254.28;5054551;28;20025;-74
2023/12/04 06:27:06;;;;;;;20.33;10.75;;;;;;;3.07;100.00;98252.13;5090944;28;20024;-72
2023/12/04 06:29:32;;;;;;;22.13;10.55;;;;;;;3.28;100.00;98256.94;5073170;28;20024;-74
2023/12/04 06:31:58;;;;;;;16.95;9.05;;;;;;;3.65;100.00;98247.28;5090831;28;20024;-73
2023/12/04 06:34:24;;;;;;;15.23;7.20;;;;;;;4.46;100.00;98240.81;5098032;28;20039;-73
2023/12/04 06:36:50;;;;;;;14.18;6.88;;;;;;;6.02;100.00;98224.69;5072882;28;20502;-72
2023/12/04 06:39:17;;;;;;;14.38;7.57;;;;;;;7.09;100.00;98197.78;5090759;28;20024;-73
2023/12/04 06:41:43;;;;;;;19.52;9.57;;;;;;;8.16;100.00;98215.69;5072914;28;20483;-73
2023/12/04 06:44:10;;;;;;;19.50;9.85;;;;;;;9.11;89.94;98190.19;5072733;28;20099;-74
2023/12/04 06:46:39;;;;;;;17.27;9.68;;;;;;;9.90;80.84;98196.25;5090766;28;20020;-74
2023/12/04 06:49:08;;;;;;;16.08;8.88;;;;;;;10.22;71.88;98195.53;5081064;28;20076;-73
2023/12/04 06:51:34;;;;;;;19.02;10.63;;;;;;;10.21;65.14;98191.97;5081059;28;20046;-73
2023/12/04 06:53:59;;;;;;;56.78;26.25;;;;;;;10.75;63.23;98192.78;5072327;28;20020;-73
2023/12/04 06:56:25;;;;;;;24.15;8.27;;;;;;;10.38;61.27;98200.97;5074881;28;20115;-74
2023/12/04 06:58:51;;;;;;;22.95;7.53;;;;;;;10.87;59.79;98193.00;5091627;28;20027;-74
2023/12/04 07:01:16;;;;;;;15.80;8.35;;;;;;;10.99;58.05;98201.31;5055833;28;20035;-73
2023/12/04 07:03:42;;;;;;;13.18;7.70;;;;;;;11.43;58.11;98194.44;5106818;28;20059;-74
2023/12/04 07:06:08;;;;;;;12.23;7.07;;;;;;;11.30;57.47;98193.38;5075909;28;20055;-73
2023/12/04 07:08:33;;;;;;;33.55;17.50;;;;;;;10.65;58.50;98199.56;5092487;28;20471;-74
2023/12/04 07:10:59;;;;;;;17.92;8.98;;;;;;;9.78;60.06;98208.41;5102190;28;20019;-73
2023/12/04 07:13:24;;;;;;;16.33;7.63;;;;;;;8.59;68.17;98220.97;5092447;28;20027;-72
2023/12/04 07:15:51;;;;;;;21.25;10.50;;;;;;;8.30;75.55;98223.16;5083347;28;20024;-75
2023/12/04 07:18:16;;;;;;;12.40;6.22;;;;;;;8.18;72.50;98236.00;5072331;28;20031;-72
2023/12/04 07:20:42;;;;;;;10.63;5.50;;;;;;;8.17;75.61;98234.31;5083978;28;20031;-72
2023/12/04 07:23:08;;;;;;;14.02;6.47;;;;;;;9.32;71.75;98219.50;5076168;28;20028;-73
2023/12/04 07:25:33;;;;;;;11.88;6.00;;;;;;;10.22;60.75;98206.22;5111716;28;20034;-73
2023/12/04 07:27:59;;;;;;;10.50;5.82;;;;;;;10.93;56.42;98198.97;5113989;28;20145;-73
2023/12/04 07:30:25;;;;;;;6.57;4.18;;;;;;;10.67;52.06;98186.97;5096270;28;20027;-73
2023/12/04 07:32:51;;;;;;;8.15;4.15;;;;;;;10.81;51.12;98184.44;5095645;28;20118;-73
2023/12/04 07:35:18;;;;;;;5.82;4.18;;;;;;;10.70;49.81;98192.19;5081639;28;20146;-73
2023/12/04 07:37:44;;;;;;;6.55;4.00;;;;;;;10.00;48.57;98200.16;5059039;28;20036;-73
2023/12/04 07:40:10;;;;;;;6.75;3.55;;;;;;;9.73;50.40;98194.38;5099705;28;20027;-72
2023/12/04 07:42:36;;;;;;;8.02;4.38;;;;;;;10.66;49.56;98195.94;5075892;28;20367;-73
2023/12/04 07:45:02;;;;;;;7.07;4.25;;;;;;;11.27;49.83;98199.78;5075805;28;20505;-73
2023/12/04 07:47:28;;;;;;;11.52;5.45;;;;;;;11.37;48.76;98189.44;5092700;28;20111;-73
2023/12/04 07:49:54;;;;;;;9.40;4.68;;;;;;;10.19;49.39;98191.22;5092287;28;20138;-73
2023/12/04 07:52:19;;;;;;;22.33;9.45;;;;;;;11.19;48.50;98193.97;5093815;28;20015;-73
2023/12/04 07:54:45;;;;;;;5.95;3.70;;;;;;;11.92;45.09;98182.75;5085364;28;20390;-72
2023/12/04 07:57:10;;;;;;;50.83;26.67;;;;;;;12.45;45.06;98171.56;5098493;28;20035;-73
2023/12/04 07:59:36;;;;;;;23.73;8.50;;;;;;;12.76;44.12;98188.53;5102754;28;20076;-74
2023/12/04 08:02:01;;;;;;;29.98;10.63;;;;;;;12.88;46.25;98196.69;5093553;28;20027;-74
2023/12/04 08:04:27;;;;;;;39.75;12.02;;;;;;;12.59;46.10;98200.25;5100849;28;20362;-73
2023/12/04 08:06:53;;;;;;;64.63;22.17;;;;;;;12.39;45.74;98192.53;5085188;28;20068;-73
2023/12/04 08:09:24;;;;;;;15.00;8.18;;;;;;;12.19;44.73;98193.69;5075210;28;20032;-72
2023/12/04 08:11:50;;;;;;;11.40;6.97;;;;;;;11.57;46.76;98204.38;5069498;28;20416;-73
2023/12/04 08:14:16;;;;;;;10.98;5.82;;;;;;;11.96;46.11;98207.56;5105302;28;20080;-74
2023/12/04 08:16:41;;;;;;;10.02;5.68;;;;;;;11.26;46.55;98202.53;5095265;28;20031;-72
2023/12/04 08:19:07;;;;;;;9.57;5.63;;;;;;;11.52;47.18;98218.06;5063820;28;20031;-73
2023/12/04 08:21:33;;;;;;;11.00;6.05;;;;;;;12.34;45.46;98205.34;5091737;28;20062;-73
2023/12/04 08:23:58;;;;;;;10.88;5.38;;;;;;;12.70;45.96;98207.69;5093201;28;20054;-72
2023/12/04 08:26:25;;;;;;;13.73;6.07;;;;;;;13.01;45.82;98203.03;5096187;28;20055;-72
2023/12/04 08:28:51;;;;;;;9.68;5.90;;;;;;;12.42;45.34;98201.28;5080232;28;20502;-73
2023/12/04 08:31:17;;;;;;;12.73;5.75;;;;;;;12.65;44.43;98204.38;5074823;28;20028;-73
2023/12/04 08:33:43;;;;;;;9.95;5.53;;;;;;;12.15;45.91;98212.75;5094940;28;20031;-73
2023/12/04 08:36:11;;;;;;;10.50;5.72;;;;;;;11.49;46.08;98203.97;5074811;28;20081;-73
2023/12/04 08:38:36;;;;;;;13.25;6.78;;;;;;;12.24;45.55;98207.69;5075011;28;20548;-73
2023/12/04 08:41:03;;;;;;;11.77;6.13;;;;;;;11.94;45.15;98213.00;5074803;28;20024;-73
2023/12/04 08:43:29;;;;;;;12.75;5.60;;;;;;;13.11;43.83;98199.81;5074906;28;20031;-72
2023/12/04 08:45:55;;;;;;;9.07;5.45;;;;;;;14.10;42.81;98205.97;5092390;28;20027;-72
2023/12/04 08:48:21;;;;;;;10.85;5.25;;;;;;;14.12;42.39;98193.25;5074581;28;20028;-73
2023/12/04 08:50:47;;;;;;;5.90;4.05;;;;;;;14.61;40.34;98185.53;5074570;28;20122;-74
2023/12/04 08:53:13;;;;;;;6.40;3.70;;;;;;;13.69;40.37;98183.59;5086443;28;20054;-73
2023/12/04 08:55:38;;;;;;;5.55;3.95;;;;;;;13.74;40.78;98182.34;5094698;28;20080;-73
2023/12/04 08:58:04;;;;;;;7.72;4.22;;;;;;;14.03;40.63;98178.59;5094663;28;20023;-74
2023/12/04 09:00:30;;;;;;;8.32;4.45;;;;;;;13.25;41.22;98167.59;5091159;28;20088;-73
2023/12/04 09:02:55;;;;;;;7.20;4.53;;;;;;;14.01;40.59;98179.66;5091641;28;20028;-74
2023/12/04 09:05:22;;;;;;;9.23;5.15;;;;;;;14.89;40.03;98179.13;5100102;28;20027;-72
2023/12/04 09:07:47;;;;;;;8.07;4.68;;;;;;;15.34;38.40;98164.22;5080046;28;20102;-72
2023/12/04 09:10:13;;;;;;;7.63;3.60;;;;;;;15.10;37.23;98150.66;5090818;28;20106;-73
2023/12/04 09:12:40;;;;;;;9.90;4.30;;;;;;;15.57;38.12;98160.75;5070419;28;20028;-74
2023/12/04 09:15:05;;;;;;;6.50;3.83;;;;;;;16.25;36.66;98159.25;5076819;28;20045;-74
2023/12/04 09:17:31;;;;;;;4.30;3.15;;;;;;;16.17;37.14;98166.22;5094515;28;20028;-72
2023/12/04 09:19:57;;;;;;;4.45;3.35;;;;;;;16.18;38.60;98173.34;5088707;28;20038;-73
2023/12/04 09:22:23;;;;;;;6.90;4.35;;;;;;;16.33;37.41;98158.69;5091415;28;20039;-73
2023/12/04 09:24:48;;;;;;;6.95;3.90;;;;;;;16.64;35.87;98150.00;5107149;28;20020;-73
2023/12/04 09:27:14;;;;;;;6.28;3.85;;;;;;;16.00;37.18;98150.38;5112264;28;20024;-73
2023/12/04 09:29:41;;;;;;;5.18;3.80;;;;;;;16.04;36.58;98144.66;5082205;28;20028;-73
2023/12/04 09:32:06;;;;;;;5.70;3.67;;;;;;;16.50;36.58;98143.91;5084774;28;20089;-74
2023/12/04 09:34:32;;;;;;;4.80;3.47;;;;;;;16.59;37.34;98145.94;5092630;28;20027;-72
2023/12/04 09:36:58;;;;;;;4.82;3.55;;;;;;;15.98;36.72;98150.53;5094003;28;20059;-72
2023/12/04 09:39:23;;;;;;;7.65;3.95;;;;;;;16.63;38.23;98150.13;5056993;28;20032;-74
2023/12/04 09:41:49;;;;;;;6.35;3.97;;;;;;;17.52;34.58;98140.31;5076795;28;20053;-73
2023/12/04 09:44:15;;;;;;;11.88;3.95;;;;;;;17.49;35.76;98135.16;5090149;28;20032;-73
2023/12/04 09:46:41;;;;;;;6.75;4.30;;;;;;;16.66;36.83;98126.44;5073350;28;20471;-73
2023/12/04 09:49:07;;;;;;;5.70;3.95;;;;;;;16.71;36.83;98126.94;5081958;28;20028;-73
2023/12/04 09:51:33;;;;;;;9.18;4.20;;;;;;;16.31;36.72;98130.94;5073711;28;20117;-72
2023/12/04 09:54:03;;;;;;;7.68;4.45;;;;;;;17.37;36.22;98133.44;5078957;28;20035;-73
2023/12/04 09:56:29;;;;;;;9.02;4.53;;;;;;;16.75;35.64;98125.72;5085049;28;20034;-73
2023/12/04 09:58:59;;;;;;;9.88;5.38;;;;;;;17.27;35.87;98127.91;5078115;28;20471;-72
2023/12/04 10:01:28;;;;;;;7.37;4.13;;;;;;;17.86;34.38;98124.94;5082247;28;20498;-72
2023/12/04 10:03:57;;;;;;;9.43;4.78;;;;;;;17.42;34.49;98117.69;5085447;28;20261;-74
2023/12/04 10:06:24;;;;;;;7.32;4.70;;;;;;;16.91;35.06;98114.59;5073273;28;20116;-73
2023/12/04 10:08:50;;;;;;;9.98;4.57;;;;;;;17.06;37.51;98120.63;5076859;28;20019;-72
2023/12/04 10:11:16;;;;;;;8.88;5.00;;;;;;;17.86;34.58;98097.88;5085352;28;20030;-73
2023/12/04 10:13:42;;;;;;;7.20;4.55;;;;;;;18.69;34.53;98100.78;5093267;28;20039;-73
2023/12/04 10:16:08;;;;;;;9.30;5.10;;;;;;;18.13;34.22;98092.00;5103381;28;20027;-73
2023/12/04 10:18:33;;;;;;;8.60;5.30;;;;;;;18.13;34.58;98094.69;5110685;28;20434;-74
2023/12/04 10:20:59;;;;;;;8.27;5.05;;;;;;;18.75;33.09;98083.97;5091351;28;20097;-73
2023/12/04 10:23:42;;;;;;;21.55;9.77;;;;;;;18.69;33.89;98081.81;5073151;28;20097;-73
2023/12/04 10:26:08;;;;;;;11.98;6.25;;;;;;;18.16;34.15;98083.63;5073104;28;20028;-73
2023/12/04 10:28:35;;;;;;;6.90;4.53;;;;;;;18.12;34.93;98093.84;5072696;28;20403;-73
2023/12/04 10:31:01;;;;;;;6.82;4.25;;;;;;;17.06;35.90;98096.28;5085691;28;20019;-73
2023/12/04 10:33:28;;;;;;;17.67;6.60;;;;;;;15.49;37.44;98102.00;5084604;28;20092;-73
2023/12/04 10:35:55;;;;;;;10.48;7.13;;;;;;;16.63;36.52;98090.69;5081270;28;20028;-73
2023/12/04 10:38:21;;;;;;;8.27;5.05;;;;;;;17.28;35.82;98088.19;5069419;28;20029;-74
2023/12/04 10:40:47;;;;;;;7.90;5.07;;;;;;;17.66;35.48;98085.09;5090206;28;20111;-73
2023/12/04 10:43:19;;;;;;;7.68;5.10;;;;;;;17.17;36.11;98088.19;5092939;28;20138;-73
2023/12/04 10:45:47;;;;;;;7.07;4.82;;;;;;;16.53;35.96;98077.00;5091040;28;20067;-72
2023/12/04 10:48:14;;;;;;;8.73;4.90;;;;;;;16.48;36.58;98079.22;5072934;28;20081;-73
2023/12/04 10:50:45;;;;;;;9.07;5.22;;;;;;;17.18;36.20;98076.38;5072660;28;20055;-73
2023/12/04 10:53:12;;;;;;;11.48;5.30;;;;;;;16.75;36.69;98069.00;5072786;28;20036;-74
2023/12/04 10:55:39;;;;;;;11.85;5.65;;;;;;;16.48;37.30;98078.34;5055697;28;20038;-72
2023/12/04 10:58:12;;;;;;;9.20;5.43;;;;;;;17.18;35.76;98073.69;5092952;28;20063;-73
2023/12/04 11:00:48;;;;;;;7.93;4.95;;;;;;;16.99;36.66;98074.28;5084528;28;20035;-74
2023/12/04 11:03:24;;;;;;;9.73;5.05;;;;;;;16.62;36.91;98073.63;5093041;28;20019;-73
2023/12/04 11:05:56;;;;;;;9.30;5.80;;;;;;;16.50;37.00;98074.53;5074197;28;20043;-73
2023/12/04 11:08:22;;;;;;;;;;;;;;;16.18;37.63;98081.56;5087890;28;20111;-73
2023/12/04 11:10:57;;;;;;;13.18;7.25;;;;;;;15.03;38.30;98092.78;5074583;28;19981;-73
2023/12/04 11:13:35;;;;;;;7.65;5.20;;;;;;;16.22;37.82;98083.91;5055909;28;20121;-73
2023/12/04 11:16:15;;;;;;;8.40;4.93;;;;;;;16.64;36.86;98078.91;5066967;28;20463;-73
2023/12/04 11:18:43;;;;;;;6.60;3.30;;;;;;;17.57;35.23;98059.66;5076114;28;20173;-72
2023/12/04 11:21:10;;;;;;;4.28;3.22;;;;;;;17.85;34.08;98053.69;5067717;28;20554;-73
2023/12/04 11:23:36;;;;;;;5.05;3.70;;;;;;;17.91;34.09;98055.03;5092870;28;20502;-72
2023/12/04 11:26:03;;;;;;;7.80;3.78;;;;;;;18.59;33.69;98051.06;5092563;28;20040;-72